Airfield :
LOGIN :

Register | Disclaimer

   EN    FR    IT 

 










Legend :    VFR   Marginal VFR   IFR   Intensive IFR   Very Intensive IFR
Visi :
Ceiling :
>= 8 km
>= 3000ft
5 to 8 km
1000 to 3000 ft
1500m to 5 km
500 to 1000 ft
800 to 1500m
200 to 500 ft
< 800m
< 200 ft
Symbols :   Thunderstorms  Fog  Heavy snow  Heavy precipitations  Wind > 20 kt
SIGMETs :     Misc.  Thunderstorms  Icing  Turbulence  Mountain Waves  Volcanic Ashes






- Airport Elevation : 616 ft
- IATA code : PUF


LFBP - Pau

CURRENT METAR :
  • 291100Z AUTO 26005KT 220V290 9999 NCD 13/08 Q1015 BECMG BKN014

EXPIRED METARs :
  • 291030Z AUTO 26004KT 220V310 9999 NCD 12/07 Q1016 BECMG BKN014
  • 291000Z AUTO 26004KT 220V310 9999 FEW052/// 12/08 Q1016 NOSIG
  • 290930Z AUTO VRB01KT 9999 BKN052/// 12/06 Q1016 NOSIG
  • 290900Z AUTO VRB02KT 9999 SCT021/// SCT029/// 10/05 Q1017 NOSIG
  • 290830Z AUTO 13003KT 9999 FEW016/// BKN029/// 08/03 Q1017 NOSIG
  • 290800Z AUTO 12004KT 9999 BKN015/// 06/03 Q1017 NOSIG
  • 290730Z AUTO 14005KT 9999 OVC016 06/02 Q1018 NOSIG
  • 290700Z AUTO 13003KT 9999 BKN017/// OVC050/// 05/02 Q1018 NOSIG
  • 290630Z AUTO 12004KT 9999 FEW008 BKN019 OVC052 05/02 Q1018 NOSIG
  • 290600Z AUTO 12006KT 9999 BKN021 BKN041 OVC052 05/02 Q1019 NOSIG

TAF TAF LFBP
Valid from the 29 at 06:00 until the 01 at 06:00 UTC


290500Z 2906/0106 VRB03KT 9999 BKN040
BECMG 2912/2914 BKN014
TEMPO 2915/0102 27018G30KT 4000 RA BKN009 SCT020TCU
BECMG 0103/0105 BKN025



MET'MAP, your aeronautical weather chart ! - Copyright ORBIFLY December 2007 - Disclaimer

ORBIFLY MET'MAP TEAM :

Programming & Development : Alexandra Zaïnal
Original concept : Baudouin d'Aumeries
Technical & hardware support : Manuel Goepfert
Assistance : Marc-Olivier Méhu




SOURCES & CREDITS :

   NOAA